Time;durP1;ratioP1;P1;durP2;ratioP2;P2;SDS_P1;SDS_P2;PMS_P1;PMS_P2;Temp;Humidity;BMP_temperature;BMP_pressure;BME280_temperature;BME280_humidity;BME280_pressure;Samples;Min_cycle;Max_cycle;Signal;HPM_P1;HPM_P2
2023/03/02 00:01:08;;;;;;;15.75;10.30;;;20.70;99.90;;;;;;5002729;28;20046;-61
2023/03/02 00:03:39;;;;;;;20.02;10.27;;;20.70;99.90;;;;;;5016729;28;20021;-59
2023/03/02 00:06:07;;;;;;;15.82;9.93;;;20.70;99.90;;;;;;5034028;28;20014;-60
2023/03/02 00:08:35;;;;;;;18.75;10.65;;;20.70;99.90;;;;;;5033835;28;20026;-61
2023/03/02 00:11:01;;;;;;;14.90;9.77;;;20.60;99.90;;;;;;5022933;28;20042;-60
2023/03/02 00:13:29;;;;;;;18.27;10.65;;;20.60;99.90;;;;;;5031286;28;20026;-59
2023/03/02 00:15:55;;;;;;;15.68;9.93;;;20.60;99.90;;;;;;5015060;28;20017;-60
2023/03/02 00:18:21;;;;;;;16.23;10.35;;;20.60;99.90;;;;;;5020312;28;20014;-59
2023/03/02 00:20:46;;;;;;;15.48;10.23;;;20.60;99.90;;;;;;5033524;28;20036;-60
2023/03/02 00:23:14;;;;;;;15.02;9.23;;;20.60;99.90;;;;;;5033450;28;20030;-61
2023/03/02 00:25:40;;;;;;;16.52;10.52;;;20.60;99.90;;;;;;5033530;28;20068;-59
2023/03/02 00:28:06;;;;;;;15.93;9.93;;;20.60;99.90;;;;;;5033348;28;20071;-59
2023/03/02 00:30:32;;;;;;;16.92;9.80;;;20.60;99.90;;;;;;5020440;28;20026;-59
2023/03/02 00:32:57;;;;;;;16.20;10.30;;;20.60;99.90;;;;;;5033165;28;20029;-60
2023/03/02 00:35:25;;;;;;;16.83;10.32;;;20.60;99.90;;;;;;5033299;28;20479;-60
2023/03/02 00:37:52;;;;;;;17.00;10.00;;;20.60;99.90;;;;;;5033206;28;20025;-59
2023/03/02 00:40:18;;;;;;;15.20;9.60;;;20.50;99.90;;;;;;5032980;28;20048;-59
2023/03/02 00:42:44;;;;;;;13.63;8.98;;;20.50;99.90;;;;;;5021069;28;20503;-59
2023/03/02 00:45:10;;;;;;;16.25;9.57;;;20.50;99.90;;;;;;5018668;28;20061;-59
2023/03/02 00:47:37;;;;;;;15.88;10.18;;;20.50;99.90;;;;;;5033399;28;20060;-59
2023/03/02 00:50:04;;;;;;;15.20;9.93;;;20.50;99.90;;;;;;5032813;28;20099;-59
2023/03/02 00:52:31;;;;;;;;;;;20.50;99.90;;;;;;5022973;28;20026;-59
2023/03/02 00:54:56;;;;;;;17.35;9.75;;;20.50;99.90;;;;;;5028369;28;19905;-61
2023/03/02 00:57:22;;;;;;;14.50;8.93;;;20.50;99.90;;;;;;5032916;28;20494;-60
2023/03/02 00:59:48;;;;;;;15.10;9.57;;;20.50;99.90;;;;;;5048409;23;20096;-53
2023/03/02 01:02:14;;;;;;;13.75;8.85;;;20.50;99.90;;;;;;5025446;28;20022;-53
2023/03/02 01:04:42;;;;;;;16.10;9.70;;;20.50;99.90;;;;;;4991164;28;20025;-53
2023/03/02 01:07:09;;;;;;;;;;;20.40;99.90;;;;;;5020160;28;20026;-53
2023/03/02 01:09:35;;;;;;;;;;;20.40;99.90;;;;;;5033155;28;19920;-53
2023/03/02 01:12:01;;;;;;;18.33;9.35;;;20.40;99.90;;;;;;5014887;28;19905;-54
2023/03/02 01:14:27;;;;;;;13.85;7.95;;;20.40;99.90;;;;;;5014757;28;20060;-52
2023/03/02 01:16:53;;;;;;;13.50;8.55;;;20.40;99.90;;;;;;5032334;28;20021;-51
2023/03/02 01:19:19;;;;;;;15.18;8.45;;;20.40;99.90;;;;;;5014638;28;20437;-53
2023/03/02 01:21:45;;;;;;;13.18;8.25;;;20.40;99.90;;;;;;5032160;28;20037;-52
2023/03/02 01:24:11;;;;;;;13.02;8.40;;;20.40;99.90;;;;;;4998223;28;20180;-52
2023/03/02 01:26:37;;;;;;;16.15;9.30;;;20.30;99.90;;;;;;5032658;28;20036;-52
2023/03/02 01:29:03;;;;;;;14.55;9.02;;;20.30;99.90;;;;;;5018913;28;20026;-51
2023/03/02 01:31:30;;;;;;;13.63;8.95;;;20.40;99.90;;;;;;5003436;28;20109;-53
2023/03/02 01:33:56;;;;;;;13.15;8.10;;;20.30;99.90;;;;;;5029040;28;20214;-53
2023/03/02 01:36:22;;;;;;;14.38;7.80;;;20.30;99.90;;;;;;5022217;28;20099;-52
2023/03/02 01:38:49;;;;;;;14.57;8.50;;;20.40;99.90;;;;;;5029093;28;20025;-53
2023/03/02 01:41:15;;;;;;;13.43;8.85;;;20.30;99.90;;;;;;5032269;28;20033;-53
2023/03/02 01:43:41;;;;;;;14.70;8.65;;;20.30;99.90;;;;;;5029831;28;20028;-53
2023/03/02 01:46:07;;;;;;;12.63;7.93;;;20.30;99.90;;;;;;5019872;28;20025;-51
2023/03/02 01:48:53;;;;;;;13.13;8.02;;;20.30;99.90;;;;;;5014416;28;20475;-52
2023/03/02 01:51:24;;;;;;;13.55;8.13;;;20.30;99.90;;;;;;5021502;28;20536;-53
2023/03/02 01:53:54;;;;;;;15.32;8.20;;;20.30;99.90;;;;;;5029443;28;20033;-53
2023/03/02 01:56:25;;;;;;;13.30;7.90;;;20.30;99.90;;;;;;5022096;28;20109;-53
2023/03/02 01:59:00;;;;;;;11.60;7.95;;;20.30;99.90;;;;;;5031815;28;20026;-54
2023/03/02 02:01:39;;;;;;;11.48;7.78;;;20.30;99.90;;;;;;5030276;28;20076;-49
2023/03/02 02:04:05;;;;;;;12.43;7.65;;;20.30;99.90;;;;;;5031874;28;20056;-50
2023/03/02 02:06:36;;;;;;;11.52;7.47;;;20.30;99.90;;;;;;5031935;28;20017;-50
2023/03/02 02:09:04;;;;;;;12.27;7.38;;;20.30;99.90;;;;;;5018913;28;20537;-50
2023/03/02 02:11:30;;;;;;;;;;;20.20;99.90;;;;;;5032138;28;20030;-50
2023/03/02 02:14:00;;;;;;;12.70;7.75;;;20.20;99.90;;;;;;5031832;28;20329;-50
2023/03/02 02:16:32;;;;;;;12.57;7.47;;;20.20;99.90;;;;;;5031813;28;20493;-50
2023/03/02 02:18:58;;;;;;;13.00;7.35;;;20.20;99.90;;;;;;5031751;28;20375;-50
2023/03/02 02:21:25;;;;;;;16.27;7.63;;;20.20;99.90;;;;;;5002100;28;20034;-50
2023/03/02 02:23:57;;;;;;;12.98;7.38;;;20.10;99.90;;;;;;5031262;28;20525;-50
2023/03/02 02:26:33;;;;;;;11.35;7.05;;;20.10;99.90;;;;;;5031649;28;20029;-50
2023/03/02 02:29:03;;;;;;;11.45;6.80;;;20.10;99.90;;;;;;5018111;28;20508;-49
2023/03/02 02:31:41;;;;;;;10.93;6.68;;;20.10;99.90;;;;;;5018163;28;20128;-49
2023/03/02 02:34:21;;;;;;;10.23;6.85;;;20.10;99.90;;;;;;5018849;28;20028;-50
2023/03/02 02:36:49;;;;;;;12.50;7.68;;;20.10;99.90;;;;;;5018430;28;20446;-50
2023/03/02 02:39:22;;;;;;;12.23;6.72;;;20.10;99.90;;;;;;5032660;28;20022;-50
2023/03/02 02:41:51;;;;;;;8.48;5.75;;;20.10;99.90;;;;;;5002552;28;20053;-50
2023/03/02 02:44:18;;;;;;;11.35;6.65;;;20.10;99.90;;;;;;4991224;28;20033;-50
2023/03/02 02:46:44;;;;;;;12.80;6.90;;;20.00;99.90;;;;;;5035280;28;20025;-50
2023/03/02 02:49:33;;;;;;;10.90;6.75;;;20.10;99.90;;;;;;5035387;28;20029;-50
2023/03/02 02:51:58;;;;;;;9.57;6.50;;;20.00;99.90;;;;;;5035128;28;20021;-50
2023/03/02 02:54:25;;;;;;;10.73;6.47;;;20.00;99.90;;;;;;5035153;28;20072;-50
2023/03/02 02:56:53;;;;;;;10.85;6.55;;;20.00;99.90;;;;;;5021667;28;20121;-50
2023/03/02 02:59:20;;;;;;;12.30;7.53;;;20.00;99.90;;;;;;5050782;23;20365;-53
2023/03/02 03:01:48;;;;;;;12.38;6.30;;;20.00;99.90;;;;;;5002165;28;20117;-53
2023/03/02 03:04:17;;;;;;;;;;;20.00;99.90;;;;;;5016062;28;20172;-52
2023/03/02 03:06:55;;;;;;;10.27;6.22;;;20.00;99.90;;;;;;4997164;28;20004;-53
2023/03/02 03:09:24;;;;;;;10.35;6.70;;;19.90;99.90;;;;;;5004852;28;20050;-53
2023/03/02 03:11:53;;;;;;;9.93;6.10;;;19.90;99.90;;;;;;4997504;28;20571;-53
2023/03/02 03:14:25;;;;;;;8.00;5.65;;;19.90;99.90;;;;;;5015057;28;20076;-53
2023/03/02 03:16:52;;;;;;;10.23;6.28;;;19.90;99.90;;;;;;4999248;28;20565;-52
2023/03/02 03:19:27;;;;;;;11.20;6.05;;;19.90;99.90;;;;;;5004747;28;20503;-53
2023/03/02 03:21:56;;;;;;;9.88;6.30;;;19.90;99.90;;;;;;5014824;28;20113;-51
2023/03/02 03:24:23;;;;;;;9.77;6.18;;;19.90;99.90;;;;;;5005458;28;20404;-51
2023/03/02 03:26:49;;;;;;;13.57;7.55;;;19.90;99.90;;;;;;5011381;28;20029;-53
2023/03/02 03:29:16;;;;;;;10.93;5.75;;;19.80;99.90;;;;;;5005660;28;20464;-53
2023/03/02 03:31:42;;;;;;;9.30;6.38;;;19.80;99.90;;;;;;4995491;28;20065;-52
2023/03/02 03:34:09;;;;;;;11.23;5.85;;;19.80;99.90;;;;;;5001838;28;20510;-52
2023/03/02 03:36:36;;;;;;;10.38;6.20;;;19.80;99.90;;;;;;5014662;28;20033;-52
2023/03/02 03:39:04;;;;;;;8.73;6.10;;;19.80;99.90;;;;;;5007537;28;20034;-52
2023/03/02 03:41:30;;;;;;;10.35;5.68;;;19.80;99.90;;;;;;4989917;28;20471;-52
2023/03/02 03:43:56;;;;;;;9.23;6.18;;;19.80;99.90;;;;;;5008592;28;20026;-50
2023/03/02 03:46:22;;;;;;;9.68;6.30;;;19.70;99.90;;;;;;5007401;28;20072;-51
2023/03/02 03:48:48;;;;;;;9.68;5.80;;;19.80;99.90;;;;;;5010178;28;20026;-52
2023/03/02 03:51:13;;;;;;;10.65;6.18;;;19.70;99.90;;;;;;4986789;28;20038;-51
2023/03/02 03:53:39;;;;;;;10.02;5.35;;;19.70;99.90;;;;;;4999945;28;20034;-53
2023/03/02 03:56:05;;;;;;;10.88;6.00;;;19.70;99.90;;;;;;4987988;28;20105;-51
2023/03/02 03:58:31;;;;;;;11.20;6.00;;;19.70;99.90;;;;;;4995834;28;20030;-53
2023/03/02 04:00:58;;;;;;;10.35;5.75;;;19.70;99.90;;;;;;5036385;23;20057;-62
2023/03/02 04:03:24;;;;;;;8.65;5.45;;;19.70;99.90;;;;;;5015920;28;20029;-60
2023/03/02 04:05:51;;;;;;;8.30;5.38;;;19.70;99.90;;;;;;5016119;28;20017;-62
2023/03/02 04:08:16;;;;;;;12.10;6.63;;;19.60;99.90;;;;;;5016224;28;20036;-61
2023/03/02 04:10:43;;;;;;;9.15;5.40;;;19.60;99.90;;;;;;5033690;28;20035;-61
2023/03/02 04:13:09;;;;;;;8.85;5.13;;;19.60;99.90;;;;;;5020149;28;20072;-61
2023/03/02 04:15:35;;;;;;;10.23;6.10;;;19.60;99.90;;;;;;5033641;28;20021;-61
2023/03/02 04:18:01;;;;;;;10.25;5.82;;;19.60;99.90;;;;;;5033726;28;20360;-60
2023/03/02 04:20:28;;;;;;;8.98;5.75;;;19.60;99.90;;;;;;5014638;28;20026;-61
2023/03/02 04:22:56;;;;;;;8.50;5.53;;;19.60;99.90;;;;;;5024651;28;20024;-61
2023/03/02 04:25:23;;;;;;;;;;;19.60;99.90;;;;;;5028941;28;20058;-61
2023/03/02 04:27:50;;;;;;;10.85;5.95;;;19.50;99.90;;;;;;5025505;28;19969;-60
2023/03/02 04:30:19;;;;;;;8.10;5.70;;;19.60;99.90;;;;;;5015809;28;20034;-60
2023/03/02 04:32:45;;;;;;;9.27;5.65;;;19.50;99.90;;;;;;5033419;28;20025;-60
2023/03/02 04:35:12;;;;;;;8.27;4.80;;;19.50;99.90;;;;;;5033110;28;20026;-61
2023/03/02 04:37:38;;;;;;;10.15;5.70;;;19.50;99.90;;;;;;5033230;28;20040;-60
2023/03/02 04:40:06;;;;;;;9.07;5.53;;;19.50;99.90;;;;;;5033093;28;20509;-60
2023/03/02 04:42:31;;;;;;;8.88;5.30;;;19.50;99.90;;;;;;5033153;28;20037;-61
2023/03/02 04:44:57;;;;;;;9.45;5.53;;;19.50;99.90;;;;;;5019806;28;20585;-61
2023/03/02 04:47:23;;;;;;;10.05;5.63;;;19.50;99.90;;;;;;5033077;28;20053;-61
2023/03/02 04:49:53;;;;;;;9.40;5.68;;;19.50;99.90;;;;;;5027579;28;20491;-60
2023/03/02 04:52:23;;;;;;;8.57;5.60;;;19.40;99.90;;;;;;5008179;28;20108;-62
2023/03/02 04:54:49;;;;;;;9.63;5.68;;;19.40;99.90;;;;;;5014556;28;20025;-60
2023/03/02 04:57:15;;;;;;;8.50;5.38;;;19.40;99.90;;;;;;5013203;28;20029;-60
2023/03/02 04:59:41;;;;;;;9.02;5.72;;;19.40;99.90;;;;;;5032628;23;20585;-53
2023/03/02 05:02:07;;;;;;;9.05;6.00;;;19.40;99.90;;;;;;5032955;28;20047;-53
2023/03/02 05:04:33;;;;;;;9.48;5.20;;;19.40;99.90;;;;;;5032693;28;20388;-53
2023/03/02 05:06:59;;;;;;;9.27;5.75;;;19.40;99.90;;;;;;5032575;28;20035;-53
2023/03/02 05:09:27;;;;;;;8.43;5.43;;;19.40;99.90;;;;;;5014943;28;20029;-52
2023/03/02 05:11:59;;;;;;;8.30;5.07;;;19.40;99.90;;;;;;5032233;28;20022;-52
2023/03/02 05:14:25;;;;;;;8.77;5.93;;;19.30;99.90;;;;;;5032730;28;20052;-54
2023/03/02 05:16:52;;;;;;;9.45;6.32;;;19.30;99.90;;;;;;5046126;28;20024;-54
2023/03/02 05:19:18;;;;;;;9.20;5.20;;;19.30;99.90;;;;;;5052597;28;20032;-54
2023/03/02 05:21:44;;;;;;;10.68;6.18;;;19.30;99.90;;;;;;5052402;28;20580;-55
2023/03/02 05:24:11;;;;;;;9.60;5.10;;;19.30;99.90;;;;;;5033463;28;20108;-52
2023/03/02 05:26:37;;;;;;;9.55;5.90;;;19.30;99.90;;;;;;5032392;28;20108;-53
2023/03/02 05:29:03;;;;;;;8.93;5.32;;;19.30;99.90;;;;;;5036101;28;20075;-51
2023/03/02 05:31:40;;;;;;;8.82;5.00;;;19.30;99.90;;;;;;5034572;28;20033;-52
2023/03/02 05:34:08;;;;;;;7.50;5.00;;;19.30;99.90;;;;;;5032847;28;20026;-52
2023/03/02 05:36:34;;;;;;;8.38;5.05;;;19.30;99.90;;;;;;5032209;28;20083;-52
2023/03/02 05:39:00;;;;;;;9.07;5.32;;;19.30;99.90;;;;;;5031607;28;20022;-50
2023/03/02 05:41:26;;;;;;;7.07;4.47;;;19.30;99.90;;;;;;5043016;28;20021;-52
2023/03/02 05:43:52;;;;;;;9.50;5.32;;;19.20;99.90;;;;;;5036070;28;20535;-51
2023/03/02 05:46:18;;;;;;;8.40;4.97;;;19.20;99.90;;;;;;5032339;28;20024;-52
2023/03/02 05:48:44;;;;;;;6.72;4.60;;;19.20;99.90;;;;;;5031963;28;20037;-51
2023/03/02 05:51:10;;;;;;;7.68;5.03;;;19.20;99.90;;;;;;5039997;28;20043;-51
2023/03/02 05:53:36;;;;;;;7.18;4.35;;;19.20;99.90;;;;;;5051640;28;20024;-52
2023/03/02 05:56:02;;;;;;;7.55;4.57;;;19.20;99.90;;;;;;5045539;28;20032;-54
2023/03/02 05:58:28;;;;;;;6.13;4.25;;;19.20;99.90;;;;;;5044824;28;20488;-52
2023/03/02 06:00:54;;;;;;;6.93;4.60;;;19.20;99.90;;;;;;5031740;28;20046;-51
2023/03/02 06:03:20;;;;;;;6.70;4.13;;;19.20;99.90;;;;;;5032016;28;20112;-51
2023/03/02 06:05:49;;;;;;;7.78;4.30;;;19.20;99.90;;;;;;5031969;28;20037;-51
2023/03/02 06:08:17;;;;;;;7.20;4.65;;;19.20;99.90;;;;;;5051922;28;20108;-51
2023/03/02 06:10:43;;;;;;;7.05;4.18;;;19.20;99.90;;;;;;5038343;28;20032;-51
2023/03/02 06:13:09;;;;;;;7.40;4.40;;;19.10;99.90;;;;;;5041121;28;20548;-54
2023/03/02 06:15:35;;;;;;;7.75;4.30;;;19.10;99.90;;;;;;5037359;28;20030;-53
2023/03/02 06:18:02;;;;;;;6.70;4.47;;;19.10;99.90;;;;;;5055577;28;20100;-54
2023/03/02 06:20:28;;;;;;;7.30;4.80;;;19.10;99.90;;;;;;5052960;28;20024;-53
2023/03/02 06:22:54;;;;;;;7.95;4.82;;;19.10;99.90;;;;;;5036057;28;20045;-54
2023/03/02 06:25:22;;;;;;;6.47;4.47;;;19.10;99.90;;;;;;5048796;28;20491;-55
2023/03/02 06:27:50;;;;;;;6.85;4.80;;;19.10;99.90;;;;;;5035634;28;20026;-54
2023/03/02 06:30:18;;;;;;;6.63;4.75;;;19.10;99.90;;;;;;5035451;28;20125;-53
2023/03/02 06:32:44;;;;;;;7.47;4.65;;;19.10;99.90;;;;;;5035414;28;20025;-53
2023/03/02 06:35:11;;;;;;;7.57;5.20;;;19.10;99.90;;;;;;5035530;28;20029;-53
2023/03/02 06:37:37;;;;;;;9.88;4.72;;;19.00;99.90;;;;;;5035050;28;20112;-54
2023/03/02 06:40:07;;;;;;;7.72;5.20;;;19.00;99.90;;;;;;5035205;28;20101;-53
2023/03/02 06:42:33;;;;;;;9.50;5.03;;;19.00;99.90;;;;;;5035025;28;20051;-53
2023/03/02 06:44:59;;;;;;;7.97;5.57;;;19.00;99.90;;;;;;5035275;28;20021;-53
2023/03/02 06:47:24;;;;;;;7.93;5.18;;;19.00;99.90;;;;;;5034982;28;20025;-53
2023/03/02 06:49:50;;;;;;;6.57;4.18;;;19.00;99.90;;;;;;5035124;28;20029;-54
2023/03/02 06:52:16;;;;;;;9.95;5.07;;;19.00;99.90;;;;;;5034753;28;20025;-53
2023/03/02 06:54:42;;;;;;;8.13;4.85;;;19.00;99.90;;;;;;5044553;28;20032;-53
2023/03/02 06:57:08;;;;;;;8.52;5.57;;;19.00;99.90;;;;;;5033387;28;20025;-53
2023/03/02 06:59:34;;;;;;;6.63;4.45;;;19.00;99.90;;;;;;5034867;28;20031;-54
2023/03/02 07:02:00;;;;;;;8.80;5.57;;;19.00;99.90;;;;;;5047598;28;20048;-53
2023/03/02 07:04:27;;;;;;;8.65;5.07;;;19.00;99.90;;;;;;5035165;28;20029;-51
2023/03/02 07:06:53;;;;;;;8.02;4.80;;;19.00;99.90;;;;;;5034991;28;20471;-52
2023/03/02 07:09:19;;;;;;;7.32;4.93;;;19.00;99.90;;;;;;5034735;28;20387;-51
2023/03/02 07:11:45;;;;;;;10.27;5.65;;;19.00;99.90;;;;;;5047155;28;20028;-51
2023/03/02 07:14:10;;;;;;;8.73;5.57;;;19.00;99.90;;;;;;5037298;28;20025;-52
2023/03/02 07:16:36;;;;;;;7.95;4.88;;;19.00;99.90;;;;;;5035062;28;20049;-51
2023/03/02 07:19:02;;;;;;;7.82;4.88;;;19.00;99.90;;;;;;5054134;28;20029;-51
2023/03/02 07:21:28;;;;;;;9.25;5.03;;;19.00;99.90;;;;;;5039244;28;20022;-52
2023/03/02 07:23:54;;;;;;;8.80;5.53;;;19.00;99.90;;;;;;5036734;28;20360;-50
2023/03/02 07:26:19;;;;;;;10.75;6.32;;;19.00;99.90;;;;;;5051678;28;20104;-51
2023/03/02 07:28:45;;;;;;;12.52;7.07;;;19.00;99.90;;;;;;5053183;28;20029;-55
2023/03/02 07:31:11;;;;;;;10.73;6.38;;;19.00;99.90;;;;;;5054244;28;20044;-53
2023/03/02 07:33:38;;;;;;;11.00;6.07;;;19.00;99.90;;;;;;5049323;28;20521;-53
2023/03/02 07:36:05;;;;;;;8.88;6.15;;;19.00;99.90;;;;;;5049321;28;20021;-54
2023/03/02 07:38:31;;;;;;;13.30;7.05;;;19.10;99.90;;;;;;5034354;28;20030;-52
2023/03/02 07:40:56;;;;;;;12.45;6.28;;;19.10;99.90;;;;;;5046082;28;20493;-52
2023/03/02 07:43:27;;;;;;;11.85;6.63;;;19.10;99.90;;;;;;5037625;28;20025;-52
2023/03/02 07:45:53;;;;;;;16.77;7.43;;;19.10;99.90;;;;;;5034147;28;20017;-52
2023/03/02 07:48:21;;;;;;;14.35;7.05;;;19.10;99.90;;;;;;5033973;28;20075;-51
2023/03/02 07:50:47;;;;;;;13.15;7.57;;;19.10;99.90;;;;;;5033767;28;20044;-53
2023/03/02 07:53:13;;;;;;;12.25;6.93;;;19.20;99.90;;;;;;5033876;28;20018;-52
2023/03/02 07:55:40;;;;;;;12.50;7.30;;;19.20;99.90;;;;;;5042961;28;20025;-52
2023/03/02 07:58:06;;;;;;;14.20;7.60;;;19.20;99.90;;;;;;5053760;28;20040;-52
2023/03/02 08:00:32;;;;;;;14.27;7.95;;;19.20;99.90;;;;;;5043966;28;20038;-53
2023/03/02 08:02:58;;;;;;;14.23;8.07;;;19.20;99.90;;;;;;5048317;28;20017;-53
2023/03/02 08:05:24;;;;;;;12.15;7.18;;;19.20;99.90;;;;;;5052157;28;20028;-53
2023/03/02 08:07:50;;;;;;;12.75;7.60;;;19.30;99.90;;;;;;5033649;28;20020;-52
2023/03/02 08:10:15;;;;;;;10.82;7.38;;;19.30;99.90;;;;;;5033218;28;20077;-54
2023/03/02 08:12:44;;;;;;;13.25;7.72;;;19.30;99.90;;;;;;5015851;28;20466;-52
2023/03/02 08:15:10;;;;;;;17.58;7.95;;;19.30;99.90;;;;;;5033463;28;20036;-52
2023/03/02 08:17:37;;;;;;;12.02;7.03;;;19.30;99.90;;;;;;5033694;28;20025;-53
2023/03/02 08:20:03;;;;;;;14.35;7.82;;;19.30;99.90;;;;;;5033525;28;20033;-52
2023/03/02 08:22:29;;;;;;;16.70;7.10;;;19.30;99.90;;;;;;5033494;28;20018;-51
2023/03/02 08:24:55;;;;;;;13.63;7.30;;;19.40;99.90;;;;;;5033288;28;20029;-57
2023/03/02 08:27:21;;;;;;;11.25;6.95;;;19.40;99.90;;;;;;5032922;28;20089;-53
2023/03/02 08:29:46;;;;;;;14.63;8.50;;;19.40;99.90;;;;;;5033186;28;20033;-53
2023/03/02 08:32:12;;;;;;;14.75;7.55;;;19.40;99.90;;;;;;5033192;28;20528;-53
2023/03/02 08:34:38;;;;;;;12.77;7.10;;;19.40;99.90;;;;;;5032965;28;20026;-53
2023/03/02 08:37:04;;;;;;;11.10;7.75;;;19.50;99.90;;;;;;5032230;28;20056;-53
2023/03/02 08:39:31;;;;;;;13.57;7.43;;;19.50;99.90;;;;;;5033265;28;20025;-52
2023/03/02 08:41:56;;;;;;;14.18;6.97;;;19.40;99.90;;;;;;5032554;28;20018;-53
2023/03/02 08:44:22;;;;;;;11.15;6.95;;;19.50;99.90;;;;;;5033136;28;20483;-54
2023/03/02 08:46:49;;;;;;;13.45;7.30;;;19.50;99.90;;;;;;5032707;28;20525;-54
2023/03/02 08:49:16;;;;;;;10.02;6.68;;;19.50;99.90;;;;;;5032584;28;20053;-54
2023/03/02 08:51:43;;;;;;;12.15;7.30;;;19.50;99.90;;;;;;5032796;28;20460;-53
2023/03/02 08:54:09;;;;;;;10.38;6.38;;;19.50;99.90;;;;;;5032836;28;20128;-53
2023/03/02 08:56:37;;;;;;;12.35;6.90;;;19.50;99.90;;;;;;5032579;28;20478;-54
2023/03/02 08:59:05;;;;;;;12.25;6.50;;;19.60;99.90;;;;;;5047842;28;20022;-53
2023/03/02 09:01:33;;;;;;;12.65;6.75;;;19.60;99.90;;;;;;5032614;28;20049;-53
2023/03/02 09:04:00;;;;;;;13.00;6.88;;;19.60;99.90;;;;;;5032540;28;20021;-50
2023/03/02 09:06:28;;;;;;;13.80;7.30;;;19.60;99.90;;;;;;5042126;28;20021;-50
2023/03/02 09:08:54;;;;;;;10.13;6.60;;;19.60;99.90;;;;;;5049062;28;20047;-53
2023/03/02 09:11:20;;;;;;;11.88;7.20;;;19.60;99.90;;;;;;5032530;28;20483;-53
2023/03/02 09:13:46;;;;;;;12.75;7.50;;;19.60;99.90;;;;;;5045306;28;20025;-53
2023/03/02 09:16:13;;;;;;;11.60;6.70;;;19.60;99.90;;;;;;5032303;28;20025;-54
2023/03/02 09:18:39;;;;;;;12.23;6.67;;;19.70;99.90;;;;;;5032368;28;20534;-54
2023/03/02 09:21:05;;;;;;;13.07;6.72;;;19.70;99.90;;;;;;5014692;28;20324;-53
2023/03/02 09:23:31;;;;;;;12.35;6.60;;;19.70;99.90;;;;;;5045729;28;20025;-51
2023/03/02 09:25:57;;;;;;;10.50;5.93;;;19.70;99.90;;;;;;5046954;28;20095;-53
2023/03/02 09:28:23;;;;;;;11.55;6.22;;;19.80;99.90;;;;;;5032151;28;20475;-53
2023/03/02 09:30:51;;;;;;;10.63;6.45;;;19.80;99.90;;;;;;5037575;28;20090;-53
2023/03/02 09:33:18;;;;;;;10.70;6.70;;;19.70;99.90;;;;;;5041540;28;20018;-52
2023/03/02 09:35:45;;;;;;;8.82;5.93;;;19.70;99.90;;;;;;5032199;28;20056;-53
2023/03/02 09:38:14;;;;;;;8.48;6.03;;;19.80;99.90;;;;;;5031826;28;20052;-54
2023/03/02 09:41:05;;;;;;;8.88;6.20;;;19.80;99.90;;;;;;5035157;28;20024;-53
2023/03/02 09:44:06;;;;;;;10.60;5.88;;;19.80;99.90;;;;;;5051887;28;20028;-54
2023/03/02 09:47:11;;;;;;;8.50;5.70;;;19.90;99.90;;;;;;5034178;28;20075;-53
2023/03/02 09:50:05;;;;;;;8.93;6.03;;;19.80;99.90;;;;;;4942301;28;20036;-53
2023/03/02 09:52:48;;;;;;;10.75;5.95;;;19.90;99.90;;;;;;5030869;28;20100;-53
2023/03/02 09:55:21;;;;;;;7.28;5.22;;;19.90;99.90;;;;;;5031583;28;20022;-53
2023/03/02 09:57:47;;;;;;;10.10;5.97;;;20.00;99.90;;;;;;5031567;28;20419;-55
2023/03/02 10:00:31;;;;;;;8.00;4.82;;;20.00;99.90;;;;;;5013827;28;20092;-55
2023/03/02 10:03:07;;;;;;;8.70;5.15;;;20.00;99.90;;;;;;5020498;28;20022;-54
2023/03/02 10:05:40;;;;;;;7.38;5.00;;;20.00;99.90;;;;;;5014235;28;20090;-54
2023/03/02 10:08:16;;;;;;;9.25;4.82;;;20.00;99.90;;;;;;5031843;28;20025;-54
2023/03/02 10:11:06;;;;;;;8.73;4.63;;;20.10;99.90;;;;;;5031457;28;20033;-54
2023/03/02 10:13:45;;;;;;;9.35;5.13;;;20.20;99.90;;;;;;5031855;28;20050;-55
2023/03/02 10:16:19;;;;;;;8.85;4.43;;;20.20;99.90;;;;;;5019474;28;20083;-54
2023/03/02 10:18:52;;;;;;;6.15;4.18;;;20.20;99.90;;;;;;5031446;28;20035;-54
2023/03/02 10:21:39;;;;;;;6.47;4.60;;;20.30;99.90;;;;;;5031512;28;20096;-54
2023/03/02 10:24:10;;;;;;;6.90;4.25;;;20.30;99.90;;;;;;5031425;28;20030;-54
2023/03/02 10:26:41;;;;;;;6.93;4.38;;;20.40;99.90;;;;;;5031949;28;20029;-55
2023/03/02 10:29:17;;;;;;;6.57;4.18;;;20.40;99.90;;;;;;5013783;28;20498;-55
2023/03/02 10:31:44;;;;;;;8.43;4.27;;;20.50;99.90;;;;;;5031529;28;20094;-55
2023/03/02 10:34:10;;;;;;;7.63;4.47;;;20.50;99.90;;;;;;5044679;28;20418;-53
2023/03/02 10:36:39;;;;;;;7.43;4.53;;;20.60;99.90;;;;;;5031888;28;20057;-53
2023/03/02 10:39:14;;;;;;;6.03;3.90;;;20.60;99.90;;;;;;5048310;28;20022;-53
2023/03/02 10:42:03;;;;;;;6.10;4.53;;;20.60;99.90;;;;;;5033435;28;20482;-50
2023/03/02 10:44:39;;;;;;;6.72;3.88;;;20.70;99.90;;;;;;5051324;28;20112;-50
2023/03/02 10:47:07;;;;;;;6.65;3.97;;;20.80;99.90;;;;;;5035149;28;20033;-54
2023/03/02 10:49:39;;;;;;;;;;;20.80;99.90;;;;;;5031674;28;20087;-54
2023/03/02 10:52:21;;;;;;;7.47;3.80;;;20.80;99.90;;;;;;5031287;28;20304;-53
2023/03/02 10:54:47;;;;;;;6.10;3.67;;;20.90;99.90;;;;;;5031387;28;20033;-54
2023/03/02 10:57:41;;;;;;;5.20;3.85;;;20.90;99.90;;;;;;5026585;28;20490;-53
2023/03/02 11:00:15;;;;;;;6.20;4.32;;;20.90;99.90;;;;;;5045012;28;20054;-54
2023/03/02 11:02:50;;;;;;;5.82;3.67;;;21.00;99.90;;;;;;5045581;28;20017;-54
2023/03/02 11:05:44;;;;;;;5.20;3.42;;;21.00;99.90;;;;;;5040302;28;20036;-53
2023/03/02 11:08:16;;;;;;;5.95;3.45;;;21.00;99.90;;;;;;5044150;28;20109;-49
2023/03/02 11:10:58;;;;;;;5.40;3.60;;;21.00;99.90;;;;;;5049059;28;20112;-53
2023/03/02 11:13:30;;;;;;;5.22;3.45;;;21.10;99.90;;;;;;5016894;28;20393;-52
2023/03/02 11:16:01;;;;;;;6.10;3.38;;;21.10;99.90;;;;;;5034704;28;20021;-53
2023/03/02 11:18:41;;;;;;;6.40;3.40;;;21.20;99.90;;;;;;5035374;28;20032;-52
2023/03/02 11:21:12;;;;;;;5.93;3.63;;;21.20;99.90;;;;;;5054691;28;20059;-52
2023/03/02 11:24:02;;;;;;;5.38;3.42;;;21.20;99.90;;;;;;5052631;28;20056;-52
2023/03/02 11:26:40;;;;;;;5.00;3.60;;;21.20;99.90;;;;;;5034424;28;20083;-52
2023/03/02 11:29:33;;;;;;;6.10;3.50;;;21.30;99.90;;;;;;5034610;28;20017;-52
2023/03/02 11:32:03;;;;;;;5.95;3.47;;;21.30;99.90;;;;;;5033800;28;20065;-51
2023/03/02 11:34:41;;;;;;;8.75;3.67;;;21.30;99.90;;;;;;5034214;28;20076;-51
2023/03/02 11:37:21;;;;;;;4.18;3.10;;;21.30;99.90;;;;;;5037383;28;20021;-51
2023/03/02 11:39:46;;;;;;;4.75;2.78;;;21.40;99.90;;;;;;5042469;28;20022;-52
2023/03/02 11:42:24;;;;;;;4.18;2.88;;;21.40;99.90;;;;;;5033874;28;20026;-52
2023/03/02 11:44:50;;;;;;;5.13;3.13;;;21.40;99.90;;;;;;5033890;28;20356;-52
2023/03/02 11:47:17;;;;;;;4.55;3.00;;;21.50;99.90;;;;;;5033715;28;20018;-52
2023/03/02 11:49:55;;;;;;;4.68;3.42;;;21.50;99.90;;;;;;5033826;28;20037;-51
2023/03/02 11:52:26;;;;;;;4.80;2.95;;;21.50;99.90;;;;;;5034609;28;20029;-53
2023/03/02 11:55:05;;;;;;;4.82;3.00;;;21.50;99.90;;;;;;5053942;28;20459;-53
2023/03/02 11:57:36;;;;;;;4.47;3.25;;;21.50;99.90;;;;;;5020049;28;20021;-52
2023/03/02 12:00:10;;;;;;;5.88;2.83;;;21.60;99.90;;;;;;5033567;28;20554;-52
2023/03/02 12:02:36;;;;;;;5.07;3.30;;;21.50;99.90;;;;;;5053579;28;20103;-52
2023/03/02 12:05:20;;;;;;;4.50;3.05;;;21.60;99.90;;;;;;5042906;28;20056;-53
2023/03/02 12:08:05;;;;;;;6.30;3.40;;;21.60;99.90;;;;;;5033371;28;20029;-53
2023/03/02 12:10:39;;;;;;;3.90;2.78;;;21.60;99.90;;;;;;5033519;28;20456;-53
2023/03/02 12:13:13;;;;;;;5.55;3.30;;;21.70;99.90;;;;;;5032412;28;20464;-53
2023/03/02 12:15:42;;;;;;;4.63;2.58;;;21.70;99.90;;;;;;5015775;28;20025;-54
2023/03/02 12:18:21;;;;;;;6.05;3.28;;;21.70;99.90;;;;;;5043114;28;20017;-55
2023/03/02 12:21:01;;;;;;;6.82;3.42;;;21.70;99.90;;;;;;5035274;28;20053;-55
2023/03/02 12:23:29;;;;;;;4.03;2.80;;;21.80;99.90;;;;;;5033386;28;20360;-54
2023/03/02 12:26:20;;;;;;;3.55;2.50;;;21.80;99.90;;;;;;5038299;28;20482;-55
2023/03/02 12:29:01;;;;;;;4.90;3.20;;;21.80;99.90;;;;;;5052555;28;20039;-53
2023/03/02 12:31:47;;;;;;;5.10;3.30;;;21.90;99.90;;;;;;5033239;28;20433;-53
2023/03/02 12:34:34;;;;;;;5.57;3.38;;;21.90;99.90;;;;;;5032966;28;20117;-54
2023/03/02 12:37:06;;;;;;;6.20;3.85;;;21.90;99.90;;;;;;5033310;28;20017;-54
2023/03/02 12:39:48;;;;;;;6.13;3.72;;;21.90;99.90;;;;;;5033145;28;20026;-54
2023/03/02 12:42:32;;;;;;;8.35;4.63;;;21.90;99.90;;;;;;5033263;28;20489;-54
2023/03/02 12:45:03;;;;;;;7.03;4.03;;;22.00;99.90;;;;;;5033013;28;20078;-55
2023/03/02 12:47:31;;;;;;;6.82;3.63;;;22.00;99.90;;;;;;5033004;28;20064;-54
2023/03/02 12:50:03;;;;;;;8.68;5.00;;;22.00;99.90;;;;;;5032759;28;20033;-54
2023/03/02 12:52:30;;;;;;;8.00;4.50;;;22.10;99.90;;;;;;5036979;28;20031;-54
2023/03/02 12:55:23;;;;;;;8.55;4.25;;;22.10;99.90;;;;;;5041342;28;20022;-55